createdAt,value
2018-04-29T00:00:03.968Z,70.24
2018-04-29T00:01:03.949Z,70.40
2018-04-29T00:02:03.931Z,70.11
2018-04-29T00:03:03.915Z,70.40
2018-04-29T00:04:03.892Z,70.01
2018-04-29T00:05:03.873Z,71.16
2018-04-29T00:06:03.866Z,70.59
2018-04-29T00:07:03.839Z,70.50
2018-04-29T00:08:03.819Z,70.21
2018-04-29T00:09:03.804Z,70.68
2018-04-29T00:10:03.785Z,70.87
2018-04-29T00:11:03.761Z,71.45
2018-04-29T00:12:03.754Z,71.64
2018-04-29T00:13:03.725Z,70.78
2018-04-29T00:14:03.709Z,70.68
2018-04-29T00:15:03.689Z,70.59
2018-04-29T00:16:03.674Z,70.87
2018-04-29T00:17:03.655Z,70.68
2018-04-29T00:18:03.636Z,70.11
2018-04-29T00:19:03.613Z,70.30
2018-04-29T00:20:03.596Z,70.78
2018-04-29T00:21:03.584Z,71.16
2018-04-29T00:22:03.575Z,71.45
2018-04-29T00:23:03.540Z,71.36
2018-04-29T00:24:03.523Z,71.36
2018-04-29T00:25:03.501Z,71.70
2018-04-29T00:26:03.490Z,71.70
2018-04-29T00:27:03.465Z,71.64
2018-04-29T00:28:03.445Z,71.83
2018-04-29T00:29:03.426Z,71.61
2018-04-29T00:30:03.417Z,71.32
2018-04-29T00:31:03.393Z,72.41
2018-04-29T00:32:03.376Z,72.75
2018-04-29T00:33:03.355Z,72.94
2018-04-29T00:34:03.336Z,73.71
2018-04-29T00:35:03.316Z,72.85
2018-04-29T00:36:03.300Z,73.14
2018-04-29T00:37:03.281Z,73.04
2018-04-29T00:38:03.264Z,72.56
2018-04-29T00:39:03.243Z,72.85
2018-04-29T00:40:03.222Z,72.47
2018-04-29T00:41:03.208Z,72.66
2018-04-29T00:42:03.189Z,72.85
2018-04-29T00:43:03.167Z,73.04
2018-04-29T00:44:03.151Z,73.61
2018-04-29T00:45:03.132Z,73.14
2018-04-29T00:46:03.110Z,72.47
2018-04-29T00:47:03.093Z,73.14
2018-04-29T00:48:03.073Z,72.47
2018-04-29T00:49:03.055Z,72.37
2018-04-29T00:50:03.048Z,72.37
2018-04-29T00:51:03.019Z,72.94
2018-04-29T00:52:03.001Z,73.23
2018-04-29T00:53:02.981Z,73.61
2018-04-29T00:54:02.968Z,73.71
2018-04-29T00:55:02.945Z,73.80
2018-04-29T00:56:02.923Z,73.52
2018-04-29T00:57:02.934Z,73.61
2018-04-29T00:58:02.886Z,73.33
2018-04-29T00:59:02.926Z,73.04
2018-04-29T01:00:02.871Z,72.94
2018-04-29T01:01:02.864Z,73.23
2018-04-29T01:02:02.821Z,73.14
2018-04-29T01:03:02.801Z,73.80
2018-04-29T01:04:02.772Z,74.09
2018-04-29T01:05:02.753Z,74.28
2018-04-29T01:06:02.752Z,74.38
2018-04-29T01:07:02.714Z,74.28
2018-04-29T01:08:02.695Z,74.19
2018-04-29T01:09:02.686Z,74.95
2018-04-29T01:10:02.663Z,74.85
2018-04-29T01:11:02.641Z,75.24
2018-04-29T01:12:02.624Z,74.48
2018-04-29T01:13:02.605Z,74.95
2018-04-29T01:14:02.585Z,74.28
2018-04-29T01:15:02.565Z,74.28
2018-04-29T01:16:02.573Z,73.99
2018-04-29T01:17:02.529Z,74.95
2018-04-29T01:18:02.510Z,75.24
2018-04-29T01:19:02.489Z,75.71
2018-04-29T01:20:02.471Z,75.24
2018-04-29T01:21:02.454Z,75.52
2018-04-29T01:22:02.456Z,75.24
2018-04-29T01:23:02.415Z,74.85
2018-04-29T01:24:02.395Z,74.85
2018-04-29T01:25:02.381Z,75.20
2018-04-29T01:26:02.356Z,75.34
2018-04-29T01:27:02.338Z,75.96
2018-04-29T01:28:02.318Z,76.20
2018-04-29T01:29:02.303Z,76.20
2018-04-29T01:30:02.313Z,75.91
2018-04-29T01:31:02.269Z,76.06
2018-04-29T01:32:02.243Z,77.01
2018-04-29T01:33:02.228Z,76.48
2018-04-29T01:34:02.206Z,75.91
2018-04-29T01:35:02.185Z,76.16
2018-04-29T01:36:02.166Z,75.87
2018-04-29T01:37:02.150Z,75.96
2018-04-29T01:38:02.128Z,75.87
2018-04-29T01:39:02.109Z,75.39
2018-04-29T01:40:02.089Z,76.00
2018-04-29T01:41:02.071Z,75.87
2018-04-29T01:42:02.052Z,75.78
2018-04-29T01:43:02.043Z,76.64
2018-04-29T01:44:02.015Z,77.30
2018-04-29T01:45:01.994Z,76.92
2018-04-29T01:46:01.976Z,77.21
2018-04-29T01:47:01.958Z,76.82
2018-04-29T01:48:01.941Z,76.54
2018-04-29T01:49:01.917Z,76.82
2018-04-29T01:50:01.903Z,77.01
2018-04-29T01:51:01.881Z,77.30
2018-04-29T01:52:01.865Z,77.87
2018-04-29T01:53:01.841Z,77.59
2018-04-29T01:54:01.830Z,77.11
2018-04-29T01:55:01.804Z,77.30
2018-04-29T01:56:01.789Z,77.69
2018-04-29T01:57:01.774Z,77.40
2018-04-29T01:58:01.747Z,77.21
2018-04-29T01:59:01.726Z,77.69
2018-04-29T02:00:01.712Z,78.03
2018-04-29T02:01:01.689Z,77.45
2018-04-29T02:02:01.669Z,77.74
2018-04-29T02:03:01.649Z,78.31
2018-04-29T02:04:01.631Z,78.13
2018-04-29T02:05:01.613Z,78.31
2018-04-29T02:06:01.595Z,78.31
2018-04-29T02:07:01.579Z,77.65
2018-04-29T02:08:01.554Z,78.31
2018-04-29T02:09:01.538Z,78.41
2018-04-29T02:10:01.515Z,78.22
2018-04-29T02:11:01.507Z,78.89
2018-04-29T02:12:01.477Z,78.13
2018-04-29T02:13:01.465Z,78.03
2018-04-29T02:14:01.438Z,77.65
2018-04-29T02:15:01.417Z,78.22
2018-04-29T02:16:01.399Z,78.13
2018-04-29T02:17:01.381Z,78.13
2018-04-29T02:18:01.360Z,78.31
2018-04-29T02:19:01.344Z,78.31
2018-04-29T02:20:01.322Z,78.79
2018-04-29T02:21:01.301Z,78.89
2018-04-29T02:22:01.283Z,79.27
2018-04-29T02:23:01.267Z,79.23
2018-04-29T02:24:01.268Z,79.71
2018-04-29T02:25:01.226Z,78.99
2018-04-29T02:26:01.203Z,79.71
2018-04-29T02:27:01.193Z,79.75
2018-04-29T02:28:01.174Z,79.71
2018-04-29T02:29:01.148Z,79.52
2018-04-29T02:30:01.126Z,79.52
2018-04-29T02:31:01.107Z,79.52
2018-04-29T02:32:01.086Z,79.52
2018-04-29T02:33:01.072Z,79.04
2018-04-29T02:34:01.048Z,78.94
2018-04-29T02:35:01.044Z,79.71
2018-04-29T02:36:01.013Z,79.23
2018-04-29T02:37:00.989Z,79.23
2018-04-29T02:38:00.983Z,79.61
2018-04-29T02:39:00.953Z,79.43
2018-04-29T02:40:00.932Z,79.71
2018-04-29T02:41:00.912Z,79.33
2018-04-29T02:42:00.895Z,79.61
2018-04-29T02:43:00.870Z,79.33
2018-04-29T02:44:00.854Z,79.99
2018-04-29T02:45:00.864Z,79.99
2018-04-29T02:46:00.836Z,79.33
2018-04-29T02:47:00.796Z,79.52
2018-04-29T02:48:00.793Z,79.71
2018-04-29T02:49:00.757Z,79.80
2018-04-29T02:50:00.734Z,80.19
2018-04-29T02:51:00.717Z,80.47
2018-04-29T02:52:00.695Z,80.81
2018-04-29T02:53:00.673Z,80.62
2018-04-29T02:54:00.661Z,80.33
2018-04-29T02:55:00.632Z,80.43
2018-04-29T02:56:00.613Z,80.72
2018-04-29T02:57:00.596Z,80.05
2018-04-29T02:58:00.572Z,79.96
2018-04-29T02:59:00.555Z,80.62
2018-04-29T03:00:00.535Z,81.38
2018-04-29T03:01:00.533Z,81.29
2018-04-29T03:02:00.494Z,81.20
2018-04-29T03:03:00.475Z,81.01
2018-04-29T03:04:00.458Z,80.72
2018-04-29T03:05:00.436Z,80.33
2018-04-29T03:06:00.418Z,81.29
2018-04-29T03:07:00.417Z,81.29
2018-04-29T03:08:00.410Z,81.67
2018-04-29T03:09:00.355Z,81.38
2018-04-29T03:10:00.352Z,81.01
2018-04-29T03:11:00.317Z,81.86
2018-04-29T03:12:00.296Z,81.20
2018-04-29T03:13:00.275Z,81.48
2018-04-29T03:14:00.253Z,81.86
2018-04-29T03:15:00.235Z,81.96
2018-04-29T03:16:00.240Z,82.15
2018-04-29T03:17:00.205Z,82.72
2018-04-29T03:18:00.176Z,81.20
2018-04-29T03:19:00.157Z,81.48
2018-04-29T03:20:00.135Z,81.86
2018-04-29T03:21:00.112Z,81.77
2018-04-29T03:22:00.093Z,81.29
2018-04-29T03:23:00.075Z,81.96
2018-04-29T03:24:00.053Z,82.30
2018-04-29T03:25:00.034Z,82.40
2018-04-29T03:26:00.025Z,82.30
2018-04-29T03:26:59.993Z,82.40
2018-04-29T03:27:59.977Z,82.59
2018-04-29T03:28:59.953Z,82.59
2018-04-29T03:29:59.942Z,82.11
2018-04-29T03:30:59.913Z,82.20
2018-04-29T03:31:59.894Z,82.40
2018-04-29T03:32:59.875Z,82.49
2018-04-29T03:33:59.851Z,82.30
2018-04-29T03:34:59.844Z,83.01
2018-04-29T03:35:59.814Z,83.48
2018-04-29T03:36:59.792Z,83.83
2018-04-29T03:37:59.774Z,83.54
2018-04-29T03:38:59.756Z,83.92
2018-04-29T03:39:59.729Z,83.92
2018-04-29T03:40:59.710Z,83.83
2018-04-29T03:41:59.689Z,83.44
2018-04-29T03:42:59.676Z,83.35
2018-04-29T03:43:59.650Z,83.06
2018-04-29T03:44:59.626Z,83.83
2018-04-29T03:45:59.614Z,83.35
2018-04-29T03:46:59.587Z,82.68
2018-04-29T03:47:59.566Z,83.64
2018-04-29T03:48:59.550Z,82.78
2018-04-29T03:49:59.561Z,83.25
2018-04-29T03:50:59.510Z,83.73
2018-04-29T03:51:59.487Z,82.68
2018-04-29T03:52:59.465Z,83.06
2018-04-29T03:53:59.446Z,83.25
2018-04-29T03:54:59.426Z,83.25
2018-04-29T03:55:59.476Z,83.83
2018-04-29T03:56:59.384Z,83.25
2018-04-29T03:57:59.368Z,83.25
2018-04-29T03:58:59.341Z,83.83
2018-04-29T03:59:59.323Z,83.92
2018-04-29T04:00:59.302Z,83.64
2018-04-29T04:01:59.285Z,83.64
2018-04-29T04:02:59.264Z,83.92
2018-04-29T04:03:59.269Z,83.16
2018-04-29T04:04:59.223Z,83.73
2018-04-29T04:05:59.202Z,83.64
2018-04-29T04:06:59.183Z,83.16
2018-04-29T04:07:59.160Z,83.44
2018-04-29T04:08:59.141Z,82.97
2018-04-29T04:09:59.123Z,83.06
2018-04-29T04:10:59.095Z,83.73
2018-04-29T04:11:59.076Z,83.54
2018-04-29T04:12:59.057Z,83.35
2018-04-29T04:13:59.037Z,84.01
2018-04-29T04:14:59.027Z,83.92
2018-04-29T04:15:58.996Z,83.69
2018-04-29T04:16:58.975Z,83.73
2018-04-29T04:17:58.960Z,83.64
2018-04-29T04:18:58.933Z,83.54
2018-04-29T04:19:58.914Z,83.92
2018-04-29T04:20:58.899Z,83.73
2018-04-29T04:21:58.871Z,83.92
2018-04-29T04:22:58.852Z,83.73
2018-04-29T04:23:58.832Z,84.01
2018-04-29T04:24:58.809Z,83.16
2018-04-29T04:25:58.791Z,83.97
2018-04-29T04:26:58.768Z,83.35
2018-04-29T04:27:58.756Z,83.64
2018-04-29T04:28:58.726Z,83.16
2018-04-29T04:29:58.707Z,83.16
2018-04-29T04:30:58.686Z,84.01
2018-04-29T04:31:58.677Z,83.92
2018-04-29T04:32:58.650Z,83.83
2018-04-29T04:33:58.623Z,83.78
2018-04-29T04:34:58.606Z,83.25
2018-04-29T04:35:58.583Z,84.01
2018-04-29T04:36:58.564Z,84.20
2018-04-29T04:37:58.546Z,83.64
2018-04-29T04:38:58.524Z,83.54
2018-04-29T04:39:58.504Z,83.92
2018-04-29T04:40:58.482Z,84.11
2018-04-29T04:41:58.461Z,84.01
2018-04-29T04:42:58.439Z,84.01
2018-04-29T04:43:58.420Z,84.01
2018-04-29T04:44:58.397Z,83.83
2018-04-29T04:45:58.376Z,83.92
2018-04-29T04:46:58.356Z,84.07
2018-04-29T04:47:58.336Z,84.40
2018-04-29T04:48:58.314Z,85.02
2018-04-29T04:49:58.294Z,85.69
2018-04-29T04:50:58.273Z,85.78
2018-04-29T04:51:58.269Z,85.97
2018-04-29T04:52:58.232Z,85.50
2018-04-29T04:53:58.211Z,85.12
2018-04-29T04:54:58.192Z,85.41
2018-04-29T04:55:58.170Z,84.45
2018-04-29T04:56:58.155Z,85.31
2018-04-29T04:57:58.132Z,85.21
2018-04-29T04:58:58.111Z,85.12
2018-04-29T04:59:58.090Z,84.26
2018-04-29T05:00:58.074Z,85.64
2018-04-29T05:01:58.050Z,84.97
2018-04-29T05:02:58.027Z,84.88
2018-04-29T05:03:58.042Z,84.30
2018-04-29T05:04:57.986Z,84.97
2018-04-29T05:05:57.967Z,84.59
2018-04-29T05:06:57.944Z,84.40
2018-04-29T05:07:57.924Z,84.11
2018-04-29T05:08:57.907Z,83.73
2018-04-29T05:09:57.884Z,84.20
2018-04-29T05:10:57.862Z,84.69
2018-04-29T05:11:57.857Z,84.97
2018-04-29T05:12:57.821Z,84.49
2018-04-29T05:13:57.798Z,84.69
2018-04-29T05:14:57.780Z,84.97
2018-04-29T05:15:57.775Z,84.69
2018-04-29T05:16:57.739Z,84.69
2018-04-29T05:17:57.717Z,84.97
2018-04-29T05:18:57.696Z,84.88
2018-04-29T05:19:57.680Z,84.78
2018-04-29T05:20:57.659Z,84.11
2018-04-29T05:21:57.642Z,83.73
2018-04-29T05:22:57.636Z,83.54
2018-04-29T05:23:57.595Z,83.83
2018-04-29T05:24:57.574Z,83.83
2018-04-29T05:25:57.554Z,83.16
2018-04-29T05:26:57.535Z,83.92
2018-04-29T05:27:57.512Z,83.58
2018-04-29T05:28:57.493Z,83.20
2018-04-29T05:29:57.470Z,83.25
2018-04-29T05:30:57.448Z,82.82
2018-04-29T05:31:57.429Z,82.82
2018-04-29T05:32:57.410Z,82.72
2018-04-29T05:33:57.390Z,83.29
2018-04-29T05:34:57.368Z,83.20
2018-04-29T05:35:57.359Z,83.48
2018-04-29T05:36:57.327Z,83.29
2018-04-29T05:37:57.307Z,83.20
2018-04-29T05:38:57.294Z,83.20
2018-04-29T05:39:57.266Z,82.82
2018-04-29T05:40:57.246Z,83.01
2018-04-29T05:41:57.230Z,83.01
2018-04-29T05:42:57.205Z,82.43
2018-04-29T05:43:57.189Z,82.82
2018-04-29T05:44:57.190Z,82.43
2018-04-29T05:45:57.143Z,82.48
2018-04-29T05:46:57.125Z,82.38
2018-04-29T05:47:57.106Z,82.00
2018-04-29T05:48:57.084Z,81.81
2018-04-29T05:49:57.087Z,82.29
2018-04-29T05:50:57.049Z,82.09
2018-04-29T05:51:57.026Z,81.90
2018-04-29T05:52:57.008Z,82.19
2018-04-29T05:53:56.986Z,81.81
2018-04-29T05:54:56.966Z,81.71
2018-04-29T05:55:56.944Z,81.71
2018-04-29T05:56:56.924Z,81.62
2018-04-29T05:57:56.903Z,81.27
2018-04-29T05:58:56.885Z,81.27
2018-04-29T05:59:56.868Z,81.18
2018-04-29T06:00:56.846Z,81.18
2018-04-29T06:01:56.826Z,81.18
2018-04-29T06:02:56.804Z,80.80
2018-04-29T06:03:56.811Z,80.80
2018-04-29T06:04:56.770Z,80.22
2018-04-29T06:05:56.745Z,80.51
2018-04-29T06:06:56.727Z,80.13
2018-04-29T06:07:56.733Z,80.41
2018-04-29T06:08:56.703Z,80.41
2018-04-29T06:09:56.664Z,80.61
2018-04-29T06:10:56.647Z,80.13
2018-04-29T06:11:56.627Z,79.88
2018-04-29T06:12:56.619Z,80.07
2018-04-29T06:13:56.669Z,80.36
2018-04-29T06:14:56.570Z,79.79
2018-04-29T06:15:56.557Z,79.31
2018-04-29T06:16:56.545Z,78.93
2018-04-29T06:17:56.509Z,78.64
2018-04-29T06:18:56.490Z,78.93
2018-04-29T06:19:56.474Z,79.22
2018-04-29T06:20:56.450Z,79.12
2018-04-29T06:21:56.430Z,78.74
2018-04-29T06:22:56.413Z,78.45
2018-04-29T06:23:56.406Z,78.26
2018-04-29T06:24:56.380Z,78.20
2018-04-29T06:25:56.389Z,78.39
2018-04-29T06:26:56.336Z,78.30
2018-04-29T06:27:56.330Z,78.87
2018-04-29T06:28:56.300Z,78.78
2018-04-29T06:29:56.311Z,78.39
2018-04-29T06:30:56.306Z,77.72
2018-04-29T06:31:56.320Z,77.63
2018-04-29T06:32:56.223Z,77.63
2018-04-29T06:33:56.199Z,77.34
2018-04-29T06:34:56.185Z,77.53
2018-04-29T06:35:56.164Z,77.63
2018-04-29T06:36:56.159Z,77.15
2018-04-29T06:37:56.748Z,77.25
2018-04-29T06:38:56.180Z,77.25
2018-04-29T06:39:56.147Z,77.44
2018-04-29T06:40:56.072Z,77.38
2018-04-29T06:41:56.048Z,77.25
2018-04-29T06:42:56.054Z,77.92
2018-04-29T06:43:56.014Z,77.86
2018-04-29T06:44:55.989Z,77.95
2018-04-29T06:45:55.981Z,77.57
2018-04-29T06:46:55.977Z,77.25
2018-04-29T06:47:55.943Z,77.28
2018-04-29T06:48:55.923Z,77.38
2018-04-29T06:49:55.897Z,77.38
2018-04-29T06:50:55.882Z,77.48
2018-04-29T06:51:55.878Z,78.05
2018-04-29T06:52:55.859Z,77.38
2018-04-29T06:53:55.822Z,77.67
2018-04-29T06:54:55.809Z,77.99
2018-04-29T06:55:55.810Z,77.90
2018-04-29T06:56:55.765Z,77.42
2018-04-29T06:57:55.750Z,77.23
2018-04-29T06:58:55.748Z,77.51
2018-04-29T06:59:55.733Z,77.04
2018-04-29T07:00:55.688Z,77.04
2018-04-29T07:01:55.671Z,76.94
2018-04-29T07:02:55.667Z,75.79
2018-04-29T07:03:55.636Z,74.84
2018-04-29T07:04:55.617Z,75.51
2018-04-29T07:05:55.597Z,74.97
2018-04-29T07:06:55.581Z,75.64
2018-04-29T07:07:55.559Z,75.93
2018-04-29T07:08:55.541Z,74.49
2018-04-29T07:09:55.524Z,74.97
2018-04-29T07:10:55.506Z,74.01
2018-04-29T07:11:55.494Z,73.54
2018-04-29T07:12:55.467Z,72.77
2018-04-29T07:13:55.448Z,70.79
2018-04-29T07:14:55.466Z,69.64
2018-04-29T07:15:55.426Z,69.74
2018-04-29T07:16:55.406Z,68.87
2018-04-29T07:17:55.377Z,70.12
2018-04-29T07:18:55.362Z,69.26
2018-04-29T07:19:55.414Z,68.33
2018-04-29T07:20:55.324Z,69.10
2018-04-29T07:21:55.305Z,69.58
2018-04-29T07:22:55.287Z,70.25
2018-04-29T07:23:55.283Z,69.39
2018-04-29T07:24:55.258Z,68.62
2018-04-29T07:25:55.233Z,68.37
2018-04-29T07:26:55.218Z,67.02
2018-04-29T07:27:55.204Z,68.08
2018-04-29T07:28:55.243Z,67.50
2018-04-29T07:29:55.164Z,67.60
2018-04-29T07:30:55.206Z,67.22
2018-04-29T07:31:55.132Z,67.41
2018-04-29T07:32:55.111Z,66.35
2018-04-29T07:33:55.092Z,66.26
2018-04-29T07:34:55.096Z,65.20
2018-04-29T07:35:55.067Z,63.86
2018-04-29T07:36:55.053Z,64.82
2018-04-29T07:37:55.026Z,63.86
2018-04-29T07:38:55.006Z,64.72
2018-04-29T07:39:55.040Z,64.05
2018-04-29T07:40:54.970Z,63.96
2018-04-29T07:41:54.963Z,65.11
2018-04-29T07:42:54.944Z,65.97
2018-04-29T07:43:54.932Z,65.39
2018-04-29T07:44:54.937Z,65.97
2018-04-29T07:45:54.899Z,65.39
2018-04-29T07:46:54.880Z,65.68
2018-04-29T07:47:54.880Z,66.35
2018-04-29T07:48:54.837Z,67.32
2018-04-29T07:49:54.826Z,68.08
2018-04-29T07:50:54.801Z,66.93
2018-04-29T07:51:54.806Z,65.78
2018-04-29T07:52:54.767Z,65.39
2018-04-29T07:53:54.752Z,65.97
2018-04-29T07:54:54.737Z,66.26
2018-04-29T07:55:54.710Z,66.35
2018-04-29T07:56:54.698Z,66.03
2018-04-29T07:57:54.686Z,66.32
2018-04-29T07:58:54.661Z,65.55
2018-04-29T07:59:54.642Z,65.39
2018-04-29T08:00:54.689Z,65.94
2018-04-29T08:01:54.610Z,67.18
2018-04-29T08:02:54.601Z,67.66
2018-04-29T08:03:54.801Z,66.22
2018-04-29T08:04:54.572Z,66.32
2018-04-29T08:05:54.549Z,67.18
2018-04-29T08:06:54.522Z,67.38
2018-04-29T08:07:54.502Z,67.66
2018-04-29T08:08:54.484Z,68.52
2018-04-29T08:09:54.521Z,68.14
2018-04-29T08:10:56.056Z,67.76
2018-04-29T08:11:54.495Z,68.14
2018-04-29T08:12:54.441Z,67.57
2018-04-29T08:13:54.406Z,67.47
2018-04-29T08:14:54.441Z,68.14
2018-04-29T08:15:54.419Z,69.20
2018-04-29T08:16:54.392Z,68.91
2018-04-29T08:17:54.408Z,69.20
2018-04-29T08:18:54.361Z,70.06
2018-04-29T08:19:54.332Z,68.43
2018-04-29T08:20:54.278Z,67.38
2018-04-29T08:21:54.261Z,68.40
2018-04-29T08:22:54.249Z,69.10
2018-04-29T08:23:54.262Z,70.25
2018-04-29T08:24:54.204Z,70.06
2018-04-29T08:25:54.189Z,69.20
2018-04-29T08:26:54.172Z,70.44
2018-04-29T08:27:54.151Z,70.25
2018-04-29T08:28:54.195Z,69.29
2018-04-29T08:29:54.121Z,70.25
2018-04-29T08:30:54.102Z,70.54
2018-04-29T08:31:54.089Z,70.06
2018-04-29T08:32:54.063Z,68.87
2018-04-29T08:33:54.105Z,70.44
2018-04-29T08:34:54.036Z,71.02
2018-04-29T08:35:54.011Z,71.50
2018-04-29T08:36:53.995Z,71.59
2018-04-29T08:37:54.008Z,71.59
2018-04-29T08:38:53.962Z,72.64
2018-04-29T08:39:53.946Z,73.32
2018-04-29T08:40:53.931Z,73.80
2018-04-29T08:41:54.023Z,73.80
2018-04-29T08:42:53.938Z,72.74
2018-04-29T08:43:53.872Z,73.03
2018-04-29T08:44:53.856Z,73.41
2018-04-29T08:45:53.837Z,74.08
2018-04-29T08:46:53.819Z,74.47
2018-04-29T08:47:53.801Z,74.18
2018-04-29T08:48:53.793Z,74.08
2018-04-29T08:49:53.776Z,74.37
2018-04-29T08:50:53.767Z,74.27
2018-04-29T08:51:53.732Z,73.74
2018-04-29T08:52:53.751Z,72.68
2018-04-29T08:53:53.697Z,73.07
2018-04-29T08:54:53.803Z,73.65
2018-04-29T08:55:53.676Z,73.07
2018-04-29T08:56:53.649Z,72.78
2018-04-29T08:57:53.629Z,73.35
2018-04-29T08:58:53.611Z,74.06
2018-04-29T08:59:53.598Z,72.24
2018-04-29T09:00:53.576Z,73.39
2018-04-29T09:01:53.557Z,71.86
2018-04-29T09:02:53.540Z,72.72
2018-04-29T09:03:53.559Z,72.66
2018-04-29T09:04:53.506Z,71.76
2018-04-29T09:05:53.488Z,71.03
2018-04-29T09:06:53.473Z,70.93
2018-04-29T09:07:53.459Z,70.84
2018-04-29T09:08:53.437Z,70.45
2018-04-29T09:09:53.423Z,70.93
2018-04-29T09:10:53.404Z,70.55
2018-04-29T09:11:53.390Z,69.49
2018-04-29T09:12:53.375Z,70.84
2018-04-29T09:13:53.353Z,71.22
2018-04-29T09:14:53.338Z,70.36
2018-04-29T09:15:53.323Z,70.17
2018-04-29T09:16:53.307Z,69.78
2018-04-29T09:17:53.290Z,70.64
2018-04-29T09:18:53.271Z,69.20
2018-04-29T09:19:53.257Z,68.73
2018-04-29T09:20:53.240Z,68.05
2018-04-29T09:21:54.084Z,68.53
2018-04-29T09:22:53.217Z,68.59
2018-04-29T09:23:54.241Z,69.93
2018-04-29T09:24:54.071Z,70.32
2018-04-29T09:25:53.151Z,69.93
2018-04-29T09:26:53.136Z,69.84
2018-04-29T09:27:53.117Z,69.26
2018-04-29T09:28:53.106Z,68.88
2018-04-29T09:29:53.084Z,68.98
2018-04-29T09:30:53.068Z,69.07
2018-04-29T09:31:53.053Z,69.36
2018-04-29T09:32:53.091Z,69.17
2018-04-29T09:33:54.590Z,68.40
2018-04-29T09:34:53.002Z,68.63
2018-04-29T09:35:52.987Z,70.45
2018-04-29T09:36:53.022Z,70.99
2018-04-29T09:37:52.992Z,70.51
2018-04-29T09:38:52.934Z,70.51
2018-04-29T09:39:52.921Z,69.84
2018-04-29T09:40:52.940Z,68.91
2018-04-29T09:41:52.889Z,68.88
2018-04-29T09:42:52.867Z,67.73
2018-04-29T09:43:52.897Z,67.83
2018-04-29T09:44:52.834Z,68.88
2018-04-29T09:45:52.882Z,68.59
2018-04-29T09:46:52.808Z,68.88
2018-04-29T09:47:52.785Z,68.02
2018-04-29T09:48:52.765Z,69.84
2018-04-29T09:49:52.749Z,70.29
2018-04-29T09:50:52.729Z,70.48
2018-04-29T09:51:52.715Z,68.66
2018-04-29T09:52:52.696Z,69.52
2018-04-29T09:53:52.743Z,70.48
2018-04-29T09:54:52.675Z,70.19
2018-04-29T09:55:52.665Z,70.00
2018-04-29T09:56:52.629Z,70.09
2018-04-29T09:57:52.611Z,70.96
2018-04-29T09:58:52.595Z,71.72
2018-04-29T09:59:52.585Z,72.39
2018-04-29T10:00:52.579Z,72.68
2018-04-29T10:01:52.548Z,72.88
2018-04-29T10:02:52.532Z,74.02
2018-04-29T10:03:52.515Z,75.46
2018-04-29T10:04:52.493Z,74.98
2018-04-29T10:05:52.493Z,74.51
2018-04-29T10:06:52.475Z,74.98
2018-04-29T10:07:52.657Z,74.98
2018-04-29T10:08:52.422Z,73.83
2018-04-29T10:09:52.412Z,74.02
2018-04-29T10:10:52.394Z,73.49
2018-04-29T10:11:53.613Z,74.35
2018-04-29T10:12:52.437Z,74.73
2018-04-29T10:13:52.338Z,74.73
2018-04-29T10:14:52.321Z,75.50
2018-04-29T10:15:53.067Z,74.87
2018-04-29T10:16:52.290Z,74.48
2018-04-29T10:17:52.269Z,74.77
2018-04-29T10:18:52.266Z,74.48
2018-04-29T10:19:52.242Z,73.24
2018-04-29T10:20:52.216Z,74.01
2018-04-29T10:21:52.206Z,71.89
2018-04-29T10:22:52.189Z,72.56
2018-04-29T10:23:52.171Z,72.75
2018-04-29T10:24:52.160Z,71.73
2018-04-29T10:25:52.233Z,70.93
2018-04-29T10:26:52.120Z,72.37
2018-04-29T10:27:52.102Z,72.28
2018-04-29T10:28:52.086Z,72.85
2018-04-29T10:29:52.074Z,72.89
2018-04-29T10:30:52.206Z,71.73
2018-04-29T10:31:52.037Z,72.41
2018-04-29T10:32:52.131Z,71.45
2018-04-29T10:33:52.056Z,70.97
2018-04-29T10:34:52.050Z,70.87
2018-04-29T10:35:51.969Z,70.87
2018-04-29T10:36:51.975Z,70.33
2018-04-29T10:37:51.934Z,70.62
2018-04-29T10:38:51.921Z,69.69
2018-04-29T10:39:51.903Z,68.29
2018-04-29T10:40:51.891Z,67.42
2018-04-29T10:41:51.890Z,68.03
2018-04-29T10:42:51.854Z,65.46
2018-04-29T10:43:51.844Z,63.57
2018-04-29T10:44:51.822Z,62.25
2018-04-29T10:45:51.864Z,61.48
2018-04-29T10:46:51.794Z,63.02
2018-04-29T10:47:51.810Z,63.18
2018-04-29T10:48:51.777Z,60.39
2018-04-29T10:49:51.749Z,60.58
2018-04-29T10:50:51.767Z,62.41
2018-04-29T10:51:51.722Z,64.40
2018-04-29T10:52:51.702Z,63.38
2018-04-29T10:53:51.691Z,62.48
2018-04-29T10:54:51.671Z,63.64
2018-04-29T10:55:51.668Z,63.06
2018-04-29T10:56:51.641Z,64.31
2018-04-29T10:57:51.687Z,63.06
2018-04-29T10:58:51.643Z,62.29
2018-04-29T10:59:51.603Z,63.25
2018-04-29T11:00:51.587Z,64.50
2018-04-29T11:01:51.607Z,64.25
2018-04-29T11:02:51.576Z,62.41
2018-04-29T11:03:51.548Z,61.83
2018-04-29T11:04:51.523Z,61.25
2018-04-29T11:05:51.512Z,60.23
2018-04-29T11:06:51.498Z,61.09
2018-04-29T11:07:51.487Z,55.31
2018-04-29T11:08:51.464Z,50.72
2018-04-29T11:09:51.450Z,49.05
2018-04-29T11:10:51.459Z,48.61
2018-04-29T11:11:51.474Z,44.46
2018-04-29T11:12:51.407Z,44.21
2018-04-29T11:13:51.447Z,40.64
2018-04-29T11:14:51.396Z,40.48
2018-04-29T11:15:51.373Z,41.79
2018-04-29T11:16:51.363Z,39.86
2018-04-29T11:17:51.351Z,39.69
2018-04-29T11:18:51.341Z,39.45
2018-04-29T11:19:51.333Z,41.36
2018-04-29T11:20:51.325Z,42.67
2018-04-29T11:21:51.319Z,42.94
2018-04-29T11:22:51.299Z,45.05
2018-04-29T11:23:51.302Z,44.45
2018-04-29T11:24:51.281Z,43.65
2018-04-29T11:25:51.268Z,45.47
2018-04-29T11:26:51.259Z,45.83
2018-04-29T11:27:51.259Z,45.54
2018-04-29T11:28:51.234Z,44.74
2018-04-29T11:29:51.250Z,41.68
2018-04-29T11:30:51.212Z,43.01
2018-04-29T11:31:51.209Z,42.03
2018-04-29T11:32:51.195Z,41.80
2018-04-29T11:33:51.272Z,42.77
2018-04-29T11:34:51.172Z,44.40
2018-04-29T11:35:51.161Z,41.86
2018-04-29T11:36:51.154Z,45.03
2018-04-29T11:37:51.140Z,46.56
2018-04-29T11:38:51.132Z,47.81
2018-04-29T11:39:51.119Z,47.79
2018-04-29T11:40:51.112Z,48.66
2018-04-29T11:41:51.100Z,48.66
2018-04-29T11:42:51.163Z,48.88
2018-04-29T11:43:51.082Z,48.30
2018-04-29T11:44:51.072Z,45.68
2018-04-29T11:45:51.068Z,46.84
2018-04-29T11:46:51.045Z,46.77
2018-04-29T11:47:51.036Z,46.51
2018-04-29T11:48:51.029Z,45.73
2018-04-29T11:49:51.017Z,43.19
2018-04-29T11:50:51.015Z,45.22
2018-04-29T11:51:50.990Z,44.54
2018-04-29T11:52:50.978Z,44.26
2018-04-29T11:53:50.969Z,42.88
2018-04-29T11:54:50.961Z,44.53
2018-04-29T11:55:50.951Z,45.20
2018-04-29T11:56:50.936Z,46.56
2018-04-29T11:57:50.927Z,44.62
2018-04-29T11:58:50.915Z,46.36
2018-04-29T11:59:50.904Z,46.67
2018-04-29T12:00:50.892Z,46.70
2018-04-29T12:01:50.946Z,43.43
2018-04-29T12:02:50.870Z,41.30
2018-04-29T12:03:50.861Z,40.66
2018-04-29T12:04:50.849Z,39.82
2018-04-29T12:05:50.841Z,37.74
2018-04-29T12:06:50.838Z,38.73
2018-04-29T12:07:50.821Z,38.65
2018-04-29T12:08:50.813Z,35.67
2018-04-29T12:09:50.881Z,33.54
2018-04-29T12:10:50.792Z,34.44
2018-04-29T12:11:50.781Z,35.71
2018-04-29T12:12:50.779Z,34.61
2018-04-29T12:13:50.773Z,32.58
2018-04-29T12:14:50.758Z,32.63
2018-04-29T12:15:50.751Z,32.29
2018-04-29T12:16:51.302Z,29.28
2018-04-29T12:17:50.896Z,28.51
2018-04-29T12:18:50.731Z,30.15
2018-04-29T12:19:50.730Z,27.81
2018-04-29T12:20:50.721Z,29.07
2018-04-29T12:21:50.713Z,30.05
2018-04-29T12:22:50.741Z,29.16
2018-04-29T12:23:50.697Z,28.44
2018-04-29T12:24:50.695Z,29.49
2018-04-29T12:25:50.691Z,29.67
2018-04-29T12:26:50.694Z,31.90
2018-04-29T12:27:50.703Z,32.29
2018-04-29T12:28:50.676Z,31.19
2018-04-29T12:29:50.704Z,33.98
2018-04-29T12:30:50.671Z,34.06
2018-04-29T12:31:50.652Z,33.77
2018-04-29T12:32:50.668Z,35.33
2018-04-29T12:33:50.671Z,35.94
2018-04-29T12:34:50.630Z,34.99
2018-04-29T12:35:50.674Z,34.24
2018-04-29T12:36:50.639Z,33.97
2018-04-29T12:37:50.612Z,32.42
2018-04-29T12:38:50.604Z,32.73
2018-04-29T12:39:50.639Z,32.14
2018-04-29T12:40:50.600Z,30.96
2018-04-29T12:41:50.626Z,31.41
2018-04-29T12:42:50.637Z,32.57
2018-04-29T12:43:50.631Z,32.65
2018-04-29T12:44:50.578Z,32.86
2018-04-29T12:45:50.622Z,33.95
2018-04-29T12:46:50.567Z,33.04
2018-04-29T12:47:51.135Z,33.12
2018-04-29T12:48:50.545Z,34.17
2018-04-29T12:49:50.554Z,35.61
2018-04-29T12:50:50.550Z,35.21
2018-04-29T12:51:50.536Z,35.60